createdAt,value
2018-11-22T00:02:36.102Z,95443.00
2018-11-22T00:05:18.390Z,95440.00
2018-11-22T00:08:01.743Z,95444.00
2018-11-22T00:10:50.467Z,95450.00
2018-11-22T00:13:32.561Z,95441.00
2018-11-22T00:16:21.315Z,95451.00
2018-11-22T00:19:02.722Z,95443.00
2018-11-22T00:21:51.439Z,95458.00
2018-11-22T00:24:33.437Z,95451.00
2018-11-22T00:27:22.169Z,95452.00
2018-11-22T00:30:05.434Z,95458.00
2018-11-22T00:32:54.153Z,95469.00
2018-11-22T00:35:36.887Z,95467.00
2018-11-22T00:38:26.375Z,95461.00
2018-11-22T00:41:15.152Z,95465.00
2018-11-22T00:43:56.765Z,95471.00
2018-11-22T00:46:45.513Z,95476.00
2018-11-22T00:49:27.720Z,95479.00
2018-11-22T00:52:16.542Z,95477.00
2018-11-22T00:54:57.884Z,95464.00
2018-11-22T00:57:47.352Z,95472.00
2018-11-22T01:00:30.472Z,95474.00
2018-11-22T01:03:19.303Z,95478.00
2018-11-22T01:06:02.321Z,95473.00
2018-11-22T01:08:43.976Z,95478.00
2018-11-22T01:11:32.632Z,95484.00
2018-11-22T01:14:14.380Z,95486.00
2018-11-22T01:17:03.462Z,95482.00
2018-11-22T01:19:51.118Z,95482.00
2018-11-22T01:25:35.939Z,95487.00
2018-11-22T01:28:25.129Z,95481.00
2018-11-22T01:31:06.443Z,95488.00
2018-11-22T01:33:55.226Z,95487.00
2018-11-22T01:36:36.723Z,95485.00
2018-11-22T01:39:25.462Z,95484.00
2018-11-22T01:42:07.714Z,95490.00
2018-11-22T01:44:56.537Z,95487.00
2018-11-22T01:47:37.974Z,95482.00
2018-11-22T01:50:26.776Z,95492.00
2018-11-22T01:53:08.349Z,95484.00
2018-11-22T01:56:35.837Z,95500.00
2018-11-22T01:59:17.658Z,95484.00
2018-11-22T02:02:06.971Z,95494.00
2018-11-22T02:04:48.526Z,95499.00
2018-11-22T02:07:37.570Z,95495.00
2018-11-22T02:10:20.771Z,95488.00
2018-11-22T02:13:09.504Z,95485.00
2018-11-22T02:15:51.219Z,95483.00
2018-11-22T02:18:40.014Z,95484.00
2018-11-22T02:21:21.797Z,95488.00
2018-11-22T02:24:10.563Z,95493.00
2018-11-22T02:26:52.372Z,95497.00
2018-11-22T02:29:41.234Z,95502.00
2018-11-22T02:32:23.365Z,95494.00
2018-11-22T02:35:31.081Z,95499.00
2018-11-22T02:38:12.551Z,95489.00
2018-11-22T02:41:01.371Z,95501.00
2018-11-22T02:43:50.119Z,95506.00
2018-11-22T02:46:38.885Z,95512.00
2018-11-22T02:49:20.555Z,95502.00
2018-11-22T02:52:09.274Z,95507.00
2018-11-22T02:54:50.498Z,95492.00
2018-11-22T02:57:39.910Z,95492.00
2018-11-22T03:00:29.601Z,95500.00
2018-11-22T03:03:18.344Z,95499.00
2018-11-22T03:05:59.578Z,95497.00
2018-11-22T03:11:46.600Z,95492.00
2018-11-22T03:14:29.445Z,95501.00
2018-11-22T03:17:18.156Z,95495.00
2018-11-22T03:19:59.653Z,95499.00
2018-11-22T03:22:48.421Z,95496.00
2018-11-22T03:25:30.417Z,95495.00
2018-11-22T03:28:19.442Z,95494.00
2018-11-22T03:31:02.734Z,95497.00
2018-11-22T03:33:51.464Z,95500.00
2018-11-22T03:36:33.457Z,95503.00
2018-11-22T03:39:22.176Z,95508.00
2018-11-22T03:42:04.110Z,95507.00
2018-11-22T03:44:52.848Z,95504.00
2018-11-22T03:47:41.910Z,95511.00
2018-11-22T03:50:25.106Z,95516.00
2018-11-22T03:53:13.829Z,95515.00
2018-11-22T03:55:55.927Z,95509.00
2018-11-22T03:58:44.651Z,95511.00
2018-11-22T04:01:26.750Z,95514.00
2018-11-22T04:07:13.248Z,95524.00
2018-11-22T04:09:54.942Z,95514.00
2018-11-22T04:12:43.990Z,95521.00
2018-11-22T04:15:27.233Z,95509.00
2018-11-22T04:18:16.037Z,95524.00
2018-11-22T04:20:58.176Z,95506.00
2018-11-22T04:23:46.976Z,95506.00
2018-11-22T04:26:35.051Z,95508.00
2018-11-22T04:29:17.361Z,95506.00
2018-11-22T04:32:06.374Z,95501.00
2018-11-22T04:34:48.562Z,95506.00
2018-11-22T04:37:37.360Z,95510.00
2018-11-22T04:40:20.169Z,95509.00
2018-11-22T04:43:09.083Z,95521.00
2018-11-22T04:45:50.856Z,95523.00
2018-11-22T04:48:39.588Z,95512.00
2018-11-22T04:51:21.728Z,95527.00
2018-11-22T04:54:10.452Z,95517.00
2018-11-22T04:56:53.069Z,95526.00
2018-11-22T04:59:41.847Z,95522.00
2018-11-22T05:02:23.151Z,95520.00
2018-11-22T05:05:13.557Z,95533.00
2018-11-22T05:07:55.533Z,95521.00
2018-11-22T05:10:44.350Z,95523.00
2018-11-22T05:13:25.677Z,95530.00
2018-11-22T05:16:14.582Z,95521.00
2018-11-22T05:18:56.391Z,95520.00
2018-11-22T05:24:51.006Z,95520.00
2018-11-22T05:27:40.027Z,95514.00
2018-11-22T05:30:23.552Z,95524.00
2018-11-22T05:33:12.326Z,95524.00
2018-11-22T05:35:54.236Z,95526.00
2018-11-22T05:38:43.848Z,95539.00
2018-11-22T05:41:26.171Z,95528.00
2018-11-22T05:44:08.567Z,95525.00
2018-11-22T05:49:58.220Z,95521.00
2018-11-22T05:52:47.637Z,95536.00
2018-11-22T05:55:37.565Z,95532.00
2018-11-22T05:58:26.408Z,95527.00
2018-11-22T06:01:07.984Z,95529.00
2018-11-22T06:03:59.484Z,95532.00
2018-11-22T06:06:41.573Z,95526.00
2018-11-22T06:09:31.252Z,95527.00
2018-11-22T06:12:13.309Z,95527.00
2018-11-22T06:15:02.530Z,95526.00
2018-11-22T06:17:44.354Z,95527.00
2018-11-22T06:20:34.070Z,95530.00
2018-11-22T06:23:17.015Z,95537.00
2018-11-22T06:26:05.770Z,95543.00
2018-11-22T06:28:47.487Z,95540.00
2018-11-22T06:31:38.787Z,95533.00
2018-11-22T06:34:20.503Z,95542.00
2018-11-22T06:37:09.428Z,95555.00
2018-11-22T06:39:54.592Z,95553.00
2018-11-22T06:42:44.038Z,95550.00
2018-11-22T06:45:33.438Z,95554.00
2018-11-22T06:48:15.602Z,95557.00
2018-11-22T06:51:04.359Z,95555.00
2018-11-22T06:53:46.051Z,95557.00
2018-11-22T06:56:37.225Z,95560.00
2018-11-22T06:59:19.256Z,95567.00
2018-11-22T07:02:08.011Z,95555.00
2018-11-22T07:08:04.770Z,95555.00
2018-11-22T07:10:53.770Z,95561.00
2018-11-22T07:13:42.754Z,95558.00
2018-11-22T07:16:50.518Z,95559.00
2018-11-22T07:19:32.444Z,95556.00
2018-11-22T07:22:21.214Z,95556.00
2018-11-22T07:25:02.841Z,95554.00
2018-11-22T07:27:51.445Z,95553.00
2018-11-22T07:30:42.172Z,95556.00
2018-11-22T07:33:24.170Z,95554.00
2018-11-22T07:36:06.025Z,95544.00
2018-11-22T07:38:57.096Z,95548.00
2018-11-22T07:41:39.232Z,95552.00
2018-11-22T07:44:46.998Z,95555.00
2018-11-22T07:47:28.260Z,95561.00
2018-11-22T07:50:18.463Z,95552.00
2018-11-22T07:53:01.410Z,95560.00
2018-11-22T07:55:50.152Z,95565.00
2018-11-22T07:58:32.062Z,95563.00
2018-11-22T08:01:21.279Z,95560.00
2018-11-22T08:04:03.340Z,95561.00
2018-11-22T08:06:52.050Z,95562.00
2018-11-22T08:09:33.663Z,95570.00
2018-11-22T08:12:25.994Z,95564.00
2018-11-22T08:15:03.815Z,95579.00
2018-11-22T08:17:52.544Z,95577.00
2018-11-22T08:20:34.993Z,95572.00
2018-11-22T08:23:23.765Z,95575.00
2018-11-22T08:26:05.964Z,95577.00
2018-11-22T08:28:54.694Z,95583.00
2018-11-22T08:31:36.365Z,95583.00
2018-11-22T08:34:25.116Z,95572.00
2018-11-22T08:37:07.033Z,95580.00
2018-11-22T08:39:55.829Z,95581.00
2018-11-22T08:42:44.986Z,95577.00
2018-11-22T08:45:27.058Z,95576.00
2018-11-22T08:48:15.959Z,95587.00
2018-11-22T08:50:57.341Z,95583.00
2018-11-22T08:53:46.091Z,95590.00
2018-11-22T08:56:27.572Z,95593.00
2018-11-22T08:59:18.855Z,95585.00
2018-11-22T09:02:00.896Z,95588.00
2018-11-22T09:04:49.656Z,95592.00
2018-11-22T09:07:31.418Z,95582.00
2018-11-22T09:10:20.952Z,95595.00
2018-11-22T09:13:03.234Z,95584.00
2018-11-22T09:15:51.995Z,95608.00
2018-11-22T09:18:35.191Z,95607.00
2018-11-22T09:21:17.351Z,95597.00
2018-11-22T09:24:06.185Z,95593.00
2018-11-22T09:26:48.281Z,95597.00
2018-11-22T09:29:39.584Z,95601.00
2018-11-22T09:32:19.197Z,95588.00
2018-11-22T09:35:08.846Z,95603.00
2018-11-22T09:37:50.102Z,95601.00
2018-11-22T09:40:38.816Z,95603.00
2018-11-22T09:43:20.031Z,95600.00
2018-11-22T09:46:08.811Z,95598.00
2018-11-22T09:48:50.747Z,95598.00
2018-11-22T09:51:39.325Z,95594.00
2018-11-22T09:54:21.319Z,95598.00
2018-11-22T09:57:10.124Z,95601.00
2018-11-22T09:59:52.014Z,95597.00
2018-11-22T10:02:40.958Z,95597.00
2018-11-22T10:05:24.006Z,95590.00
2018-11-22T10:08:12.638Z,95587.00
2018-11-22T10:10:54.676Z,95589.00
2018-11-22T10:13:43.474Z,95594.00
2018-11-22T10:16:25.586Z,95599.00
2018-11-22T10:19:14.341Z,95586.00
2018-11-22T10:21:56.635Z,95591.00
2018-11-22T10:27:46.885Z,95585.00
2018-11-22T10:30:35.660Z,95588.00
2018-11-22T10:33:24.707Z,95589.00
2018-11-22T10:36:09.317Z,95585.00
2018-11-22T10:38:58.108Z,95588.00
2018-11-22T10:41:39.905Z,95586.00
2018-11-22T10:44:28.680Z,95581.00
2018-11-22T10:47:10.478Z,95579.00
2018-11-22T10:49:59.237Z,95577.00
2018-11-22T10:52:47.977Z,95576.00
2018-11-22T10:55:38.487Z,95576.00
2018-11-22T10:58:20.631Z,95579.00
2018-11-22T11:01:28.367Z,95576.00
2018-11-22T11:04:29.038Z,95580.00
2018-11-22T11:07:36.926Z,95571.00
2018-11-22T11:10:19.178Z,95575.00
2018-11-22T11:13:08.132Z,95571.00
2018-11-22T11:15:50.280Z,95577.00
2018-11-22T11:18:39.008Z,95569.00
2018-11-22T11:21:21.499Z,95566.00
2018-11-22T11:24:10.238Z,95572.00
2018-11-22T11:26:52.229Z,95561.00
2018-11-22T11:29:41.014Z,95561.00
2018-11-22T11:32:22.572Z,95549.00
2018-11-22T11:35:13.752Z,95554.00
2018-11-22T11:37:55.734Z,95550.00
2018-11-22T11:40:44.492Z,95560.00
2018-11-22T11:43:26.312Z,95560.00
2018-11-22T11:46:15.286Z,95551.00
2018-11-22T11:48:56.737Z,95546.00
2018-11-22T11:51:48.603Z,95554.00
2018-11-22T11:54:30.293Z,95550.00
2018-11-22T11:57:19.133Z,95556.00
2018-11-22T12:00:06.698Z,95556.00
2018-11-22T12:02:55.748Z,95556.00
2018-11-22T12:05:37.618Z,95541.00
2018-11-22T12:08:26.701Z,95546.00
2018-11-22T12:11:07.953Z,95547.00
2018-11-22T12:13:56.669Z,95546.00
2018-11-22T12:16:38.644Z,95539.00
2018-11-22T12:19:27.671Z,95536.00
2018-11-22T12:22:08.978Z,95546.00
2018-11-22T12:24:57.788Z,95540.00
2018-11-22T12:27:39.516Z,95540.00
2018-11-22T12:30:29.636Z,95540.00
2018-11-22T12:33:33.440Z,95543.00
2018-11-22T12:36:22.334Z,95534.00
2018-11-22T12:39:04.193Z,95532.00
2018-11-22T12:41:53.091Z,95532.00
2018-11-22T12:44:36.378Z,95538.00
2018-11-22T12:47:25.149Z,95532.00
2018-11-22T12:50:08.912Z,95532.00
2018-11-22T12:52:57.733Z,95532.00
2018-11-22T12:55:40.315Z,95539.00
2018-11-22T12:58:29.213Z,95524.00
2018-11-22T13:01:11.451Z,95531.00
2018-11-22T13:04:00.197Z,95536.00
2018-11-22T13:06:41.589Z,95530.00
2018-11-22T13:09:30.346Z,95523.00
2018-11-22T13:12:11.792Z,95525.00
2018-11-22T13:17:47.818Z,95528.00
2018-11-22T13:20:36.684Z,95533.00
2018-11-22T13:23:18.790Z,95530.00
2018-11-22T13:26:07.528Z,95526.00
2018-11-22T13:28:48.746Z,95525.00
2018-11-22T13:31:37.464Z,95537.00
2018-11-22T13:34:18.778Z,95529.00
2018-11-22T13:37:07.708Z,95539.00
2018-11-22T13:39:49.530Z,95540.00
2018-11-22T13:42:38.593Z,95541.00
2018-11-22T13:45:23.572Z,95535.00
2018-11-22T13:48:12.285Z,95544.00
2018-11-22T13:50:54.427Z,95545.00
2018-11-22T13:53:43.160Z,95552.00
2018-11-22T13:56:24.915Z,95556.00
2018-11-22T13:59:13.663Z,95557.00
2018-11-22T14:01:55.264Z,95555.00
2018-11-22T14:04:45.323Z,95562.00
2018-11-22T14:07:27.868Z,95562.00
2018-11-22T14:10:17.737Z,95562.00
2018-11-22T14:12:59.589Z,95558.00
2018-11-22T14:15:48.322Z,95553.00
2018-11-22T14:18:30.104Z,95559.00
2018-11-22T14:21:18.885Z,95560.00
2018-11-22T14:24:00.842Z,95563.00
2018-11-22T14:26:49.563Z,95572.00
2018-11-22T14:29:33.296Z,95565.00
2018-11-22T14:32:21.990Z,95570.00
2018-11-22T14:35:03.748Z,95579.00
2018-11-22T14:37:52.495Z,95572.00
2018-11-22T14:40:34.073Z,95568.00
2018-11-22T14:43:22.864Z,95571.00
2018-11-22T14:46:04.491Z,95572.00
2018-11-22T14:48:53.772Z,95577.00
2018-11-22T14:51:39.292Z,95580.00
2018-11-22T14:54:28.275Z,95579.00
2018-11-22T14:57:09.959Z,95580.00
2018-11-22T14:59:58.738Z,95584.00
2018-11-22T15:02:42.011Z,95581.00
2018-11-22T15:05:30.782Z,95578.00
2018-11-22T15:08:12.480Z,95583.00
2018-11-22T15:11:02.152Z,95591.00
2018-11-22T15:13:50.993Z,95586.00
2018-11-22T15:16:39.795Z,95584.00
2018-11-22T15:19:22.021Z,95584.00
2018-11-22T15:22:03.438Z,95580.00
2018-11-22T15:24:52.183Z,95587.00
2018-11-22T15:27:41.416Z,95602.00
2018-11-22T15:30:24.464Z,95601.00
2018-11-22T15:33:13.198Z,95596.00
2018-11-22T15:35:55.281Z,95599.00
2018-11-22T15:38:44.038Z,95607.00
2018-11-22T15:41:25.546Z,95612.00
2018-11-22T15:44:07.448Z,95608.00
2018-11-22T15:46:56.325Z,95604.00
2018-11-22T15:49:37.948Z,95616.00
2018-11-22T15:52:26.694Z,95611.00
2018-11-22T15:55:20.813Z,95615.00
2018-11-22T15:57:59.478Z,95618.00
2018-11-22T16:00:48.313Z,95622.00
2018-11-22T16:03:37.095Z,95638.00
2018-11-22T16:06:18.378Z,95636.00
2018-11-22T16:09:09.130Z,95631.00
2018-11-22T16:11:51.439Z,95633.00
2018-11-22T16:14:40.396Z,95630.00
2018-11-22T16:17:22.307Z,95636.00
2018-11-22T16:20:11.140Z,95643.00
2018-11-22T16:22:52.436Z,95641.00
2018-11-22T16:25:41.214Z,95646.00
2018-11-22T16:28:23.107Z,95633.00
2018-11-22T16:31:11.849Z,95638.00
2018-11-22T16:33:53.959Z,95630.00
2018-11-22T16:36:42.706Z,95637.00
2018-11-22T16:39:24.359Z,95626.00
2018-11-22T16:42:13.167Z,95625.00
2018-11-22T16:44:55.434Z,95627.00
2018-11-22T16:47:44.327Z,95632.00
2018-11-22T16:50:27.374Z,95637.00
2018-11-22T16:53:16.156Z,95632.00
2018-11-22T16:55:59.102Z,95643.00
2018-11-22T16:58:47.376Z,95642.00
2018-11-22T17:01:29.051Z,95639.00
2018-11-22T17:04:17.793Z,95641.00
2018-11-22T17:06:59.272Z,95643.00
2018-11-22T17:09:49.503Z,95643.00
2018-11-22T17:12:31.533Z,95650.00
2018-11-22T17:15:21.467Z,95649.00
2018-11-22T17:18:03.995Z,95645.00
2018-11-22T17:20:52.735Z,95642.00
2018-11-22T17:23:34.870Z,95651.00
2018-11-22T17:26:23.670Z,95655.00
2018-11-22T17:29:11.297Z,95646.00
2018-11-22T17:31:52.761Z,95649.00
2018-11-22T17:34:41.501Z,95647.00
2018-11-22T17:37:24.202Z,95643.00
2018-11-22T17:40:09.412Z,95647.00
2018-11-22T17:42:58.480Z,95648.00
2018-11-22T17:45:41.834Z,95646.00
2018-11-22T17:48:30.950Z,95648.00
2018-11-22T17:51:12.917Z,95649.00
2018-11-22T17:54:01.960Z,95647.00
2018-11-22T17:56:44.096Z,95653.00
2018-11-22T17:59:35.296Z,95646.00
2018-11-22T18:02:17.094Z,95651.00
2018-11-22T18:05:27.420Z,95657.00
2018-11-22T18:08:10.770Z,95654.00
2018-11-22T18:10:58.737Z,95653.00
2018-11-22T18:13:40.193Z,95658.00
2018-11-22T18:16:29.030Z,95659.00
2018-11-22T18:22:12.294Z,95656.00
2018-11-22T18:24:54.923Z,95650.00
2018-11-22T18:27:36.512Z,95644.00
2018-11-22T18:30:26.873Z,95640.00
2018-11-22T18:33:09.043Z,95646.00
2018-11-22T18:35:57.927Z,95640.00
2018-11-22T18:38:39.974Z,95658.00
2018-11-22T18:41:28.873Z,95647.00
2018-11-22T18:47:03.274Z,95647.00
2018-11-22T18:49:52.164Z,95656.00
2018-11-22T18:52:42.930Z,95653.00
2018-11-22T18:55:24.323Z,95660.00
2018-11-22T18:58:11.905Z,95656.00
2018-11-22T19:01:01.017Z,95646.00
2018-11-22T19:03:50.181Z,95645.00
2018-11-22T19:07:00.213Z,95647.00
2018-11-22T19:09:46.985Z,95645.00
2018-11-22T19:12:34.865Z,95652.00
2018-11-22T19:15:29.447Z,95663.00
2018-11-22T19:18:43.276Z,95662.00
2018-11-22T19:21:29.864Z,95674.00
2018-11-22T19:24:18.726Z,95674.00
2018-11-22T19:27:05.840Z,95675.00
2018-11-22T19:29:47.251Z,95675.00
2018-11-22T19:35:45.793Z,95681.00
2018-11-22T19:38:37.812Z,95676.00
2018-11-22T19:41:20.339Z,95681.00
2018-11-22T19:44:03.280Z,95683.00
2018-11-22T19:46:50.997Z,95671.00
2018-11-22T19:49:32.456Z,95675.00
2018-11-22T19:52:22.813Z,95670.00
2018-11-22T19:55:08.441Z,95679.00
2018-11-22T20:01:07.589Z,95681.00
2018-11-22T20:04:11.155Z,95678.00
2018-11-22T20:06:57.309Z,95677.00
2018-11-22T20:09:38.683Z,95678.00
2018-11-22T20:12:27.858Z,95677.00
2018-11-22T20:15:17.092Z,95668.00
2018-11-22T20:18:03.057Z,95668.00
2018-11-22T20:20:51.948Z,95665.00
2018-11-22T20:23:43.173Z,95679.00
2018-11-22T20:29:38.950Z,95682.00
2018-11-22T20:32:27.998Z,95681.00
2018-11-22T20:35:36.545Z,95679.00
2018-11-22T20:38:25.324Z,95682.00
2018-11-22T20:41:33.247Z,95688.00
2018-11-22T20:44:15.198Z,95681.00
2018-11-22T20:47:04.019Z,95690.00
2018-11-22T20:49:45.458Z,95686.00
2018-11-22T20:52:34.220Z,95678.00
2018-11-22T20:55:38.232Z,95670.00
2018-11-22T20:58:27.354Z,95674.00
2018-11-22T21:01:09.811Z,95675.00
2018-11-22T21:03:58.691Z,95666.00
2018-11-22T21:06:40.026Z,95675.00
2018-11-22T21:09:48.096Z,95677.00
2018-11-22T21:12:30.616Z,95680.00
2018-11-22T21:15:14.405Z,95695.00
2018-11-22T21:18:04.912Z,95680.00
2018-11-22T21:20:46.566Z,95673.00
2018-11-22T21:23:35.640Z,95677.00
2018-11-22T21:26:19.314Z,95669.00
2018-11-22T21:29:08.188Z,95672.00
2018-11-22T21:31:50.990Z,95668.00
2018-11-22T21:34:33.492Z,95685.00
2018-11-22T21:37:22.276Z,95682.00
2018-11-22T21:40:04.308Z,95684.00
2018-11-22T21:42:53.176Z,95692.00
2018-11-22T21:45:35.472Z,95678.00
2018-11-22T21:48:24.406Z,95682.00
2018-11-22T21:51:06.768Z,95681.00
2018-11-22T21:53:56.494Z,95680.00
2018-11-22T21:56:38.507Z,95684.00
2018-11-22T21:59:28.502Z,95681.00
2018-11-22T22:02:09.917Z,95694.00
2018-11-22T22:04:59.537Z,95701.00
2018-11-22T22:07:48.348Z,95702.00
2018-11-22T22:10:30.753Z,95695.00
2018-11-22T22:13:12.266Z,95696.00
2018-11-22T22:16:01.232Z,95705.00
2018-11-22T22:18:42.725Z,95716.00
2018-11-22T22:21:31.492Z,95715.00
2018-11-22T22:24:13.038Z,95705.00
2018-11-22T22:27:01.983Z,95697.00
2018-11-22T22:29:43.301Z,95702.00
2018-11-22T22:32:32.137Z,95701.00
2018-11-22T22:35:13.621Z,95699.00
2018-11-22T22:38:03.697Z,95696.00
2018-11-22T22:40:43.804Z,95699.00
2018-11-22T22:43:32.563Z,95704.00
2018-11-22T22:46:21.351Z,95698.00
2018-11-22T22:49:10.148Z,95697.00
2018-11-22T22:51:51.570Z,95707.00
2018-11-22T22:54:40.324Z,95714.00
2018-11-22T22:57:22.730Z,95705.00
2018-11-22T23:00:49.832Z,95701.00
2018-11-22T23:03:38.636Z,95701.00
2018-11-22T23:06:20.441Z,95701.00
2018-11-22T23:09:11.881Z,95709.00
2018-11-22T23:11:53.615Z,95706.00
2018-11-22T23:14:42.362Z,95720.00
2018-11-22T23:17:23.959Z,95722.00
2018-11-22T23:20:15.051Z,95717.00
2018-11-22T23:22:56.911Z,95716.00
2018-11-22T23:25:45.695Z,95711.00
2018-11-22T23:28:27.021Z,95718.00
2018-11-22T23:31:15.744Z,95719.00
2018-11-22T23:33:57.743Z,95716.00
2018-11-22T23:36:46.509Z,95720.00
2018-11-22T23:39:27.969Z,95726.00
2018-11-22T23:42:16.761Z,95714.00
2018-11-22T23:44:58.352Z,95716.00
2018-11-22T23:47:47.558Z,95709.00
2018-11-22T23:50:30.827Z,95708.00
2018-11-22T23:53:19.713Z,95711.00
2018-11-22T23:56:01.730Z,95710.00
2018-11-22T23:58:50.470Z,95711.00
